Skip to main content.
Our real time weather data display below is updated continuously via our 24/7 live data feed.
 TIME   TEMPERATURE   WINDSPEED   DIRECTION   HUMIDITY   BAROMETER   RAINFALL 
3:10 31.1°C (88.0°F) 5.6 kmh (3.5 mph) WSW 62% 1010.6hPa (29.84 inHg) 0.0mm (0.00 in.)
2:10 31.4°C (88.5 °F) 9.3 kmh (5.8 mph) ESE 64% 1011.0hPa (29.85 inHg) 0.0mm (0.00 in.)
1:10 31.2°C (88.2 °F) 14.8 kmh (9.2 mph) W 66% 1011.1hPa (29.86 inHg) 0.0mm (0.00 in.)
12:10 31.0°C (87.8 °F) 5.6 kmh (3.5 mph) SSW 65% 1011.2hPa (29.86 inHg) 0.0mm (0.00 in.)
11:09 29.8°C (85.6 °F) 1.9 kmh (1.2 mph) N 69% 1011.4hPa (29.87 inHg) 0.0mm (0.00 in.)
10:09 29.9°C (85.8 °F) 16.7 kmh (10.4 mph) N 75% 1011.1hPa (29.86 inHg) 0.0mm (0.00 in.)
9:09 29.2°C (84.6 °F) 3.7 kmh (2.3 mph) N 78% 1010.5hPa (29.84 inHg) 0.0mm (0.00 in.)
8:09 27.7°C (81.9 °F) 1.9 kmh (1.2 mph) N 87% 1010.4hPa (29.84 inHg) 0.0mm (0.00 in.)
7:09 26.4°C (79.5 °F) 5.6 kmh (3.5 mph) N 87% 1010.3hPa (29.83 inHg) 0.0mm (0.00 in.)
6:09 26.3°C (79.3 °F) 9.3 kmh (5.8 mph) N 88% 1010.2hPa (29.83 inHg) 0.0mm (0.00 in.)
5:09 26.4°C (79.5 °F) 5.6 kmh (3.5 mph) N 88% 1009.8hPa (29.82 inHg) 0.0mm (0.00 in.)
4:09 26.6°C (79.9 °F) 1.9 kmh (1.2 mph) N 86% 1009.6hPa (29.81 inHg) 0.0mm (0.00 in.)
3:09 26.6°C (79.9 °F) 1.9 kmh (1.2 mph) N 86% 1010.0hPa (29.83 inHg) 0.0mm (0.00 in.)
2:09 26.4°C (79.5 °F) 7.4 kmh (4.6 mph) N 89% 1010.6hPa (29.84 inHg) 0.0mm (0.00 in.)
1:09 26.4°C (79.5 °F) 0.0 kmh (0.0 mph) N 90% 1010.4hPa (29.84 inHg) 0.0mm (0.00 in.)
12:09 26.6°C (79.9 °F) 0.0 kmh (0.0 mph) N 91% 1011.1hPa (29.86 inHg) 0.0mm (0.00 in.)
11:09 26.8°C (80.2 °F) 0.0 kmh (0.0 mph) N 90% 1011.7hPa (29.88 inHg) 0.0mm (0.00 in.)
10:09 27.1°C (80.8 °F) 9.3 kmh (5.8 mph) N 85% 1011.1hPa (29.86 inHg) 0.0mm (0.00 in.)
9:09 27.3°C (81.1 °F) 5.6 kmh (3.5 mph) N 80% 1011.1hPa (29.86 inHg) 0.0mm (0.00 in.)
8:09 28.0°C (82.4 °F) 9.3 kmh (5.8 mph) N 76% 1011.1hPa (29.86 inHg) 0.0mm (0.00 in.)
7:09 28.9°C (84.0 °F) 0.0 kmh (0.0 mph) N 72% 1010.7hPa (29.85 inHg) 0.0mm (0.00 in.)
6:09 30.9°C (87.6 °F) 1.9 kmh (1.2 mph) N 62% 1010.1hPa (29.83 inHg) 0.0mm (0.00 in.)
5:09 31.8°C (89.2 °F) 5.6 kmh (3.5 mph) N 57% 1010.1hPa (29.83 inHg) 0.0mm (0.00 in.)
4:09 32.5°C (90.5 °F) 5.6 kmh (3.5 mph) N 55% 1010.4hPa (29.84 inHg) 0.0mm (0.00 in.)